createdAt,value
2022-07-29T00:01:19.731Z,28.21
2022-07-29T00:03:48.758Z,27.95
2022-07-29T00:06:18.091Z,27.92
2022-07-29T00:08:50.691Z,27.90
2022-07-29T00:11:18.817Z,27.76
2022-07-29T00:13:50.905Z,27.82
2022-07-29T00:16:20.187Z,27.91
2022-07-29T00:18:48.389Z,27.82
2022-07-29T00:21:16.786Z,27.79
2022-07-29T00:23:45.390Z,27.83
2022-07-29T00:26:32.322Z,27.63
2022-07-29T00:29:32.543Z,27.71
2022-07-29T00:31:51.754Z,27.42
2022-07-29T00:34:39.486Z,27.40
2022-07-29T00:37:08.159Z,27.45
2022-07-29T00:39:36.840Z,27.34
2022-07-29T00:42:08.475Z,27.25
2022-07-29T00:44:41.000Z,27.42
2022-07-29T00:47:11.364Z,27.33
2022-07-29T00:49:43.871Z,27.36
2022-07-29T00:52:13.142Z,27.15
2022-07-29T00:54:45.569Z,27.08
2022-07-29T00:57:14.467Z,26.95
2022-07-29T00:59:42.866Z,26.90
2022-07-29T01:02:11.733Z,26.87
2022-07-29T01:04:40.769Z,26.88
2022-07-29T01:07:09.172Z,26.80
2022-07-29T01:09:45.761Z,26.85
2022-07-29T01:12:19.686Z,26.90
2022-07-29T01:14:50.137Z,26.90
2022-07-29T01:17:35.257Z,27.23
2022-07-29T01:20:21.401Z,27.04
2022-07-29T01:22:55.595Z,26.93
2022-07-29T01:25:45.570Z,27.07
2022-07-29T01:28:35.796Z,27.16
2022-07-29T01:31:06.437Z,26.91
2022-07-29T01:33:52.201Z,26.73
2022-07-29T01:36:27.182Z,26.74
2022-07-29T01:39:21.261Z,27.11
2022-07-29T01:41:58.288Z,26.88
2022-07-29T01:44:35.805Z,26.80
2022-07-29T01:47:14.049Z,26.63
2022-07-29T01:49:49.230Z,26.73
2022-07-29T01:52:37.961Z,26.78
2022-07-29T01:55:16.455Z,26.75
2022-07-29T01:57:49.047Z,26.77
2022-07-29T02:00:18.209Z,26.78
2022-07-29T02:02:49.737Z,26.78
2022-07-29T02:05:22.999Z,26.88
2022-07-29T02:07:54.256Z,26.67
2022-07-29T02:10:26.034Z,26.71
2022-07-29T02:12:57.867Z,26.66
2022-07-29T02:15:28.599Z,26.74
2022-07-29T02:18:04.979Z,26.73
2022-07-29T02:20:33.727Z,26.65
2022-07-29T02:23:05.054Z,26.61
2022-07-29T02:25:36.915Z,26.49
2022-07-29T02:28:08.001Z,26.62
2022-07-29T02:30:43.740Z,26.71
2022-07-29T02:33:15.998Z,26.70
2022-07-29T02:35:47.670Z,26.44
2022-07-29T02:38:36.577Z,26.32
2022-07-29T02:41:13.012Z,26.53
2022-07-29T02:43:44.672Z,26.40
2022-07-29T02:46:28.386Z,26.38
2022-07-29T02:49:02.400Z,26.44
2022-07-29T02:51:45.363Z,26.44
2022-07-29T02:54:47.949Z,26.62
2022-07-29T02:57:23.475Z,26.36
2022-07-29T02:59:58.426Z,26.26
2022-07-29T03:02:30.061Z,26.18
2022-07-29T03:05:02.236Z,26.09
2022-07-29T03:07:33.268Z,26.06
2022-07-29T03:10:02.543Z,25.87
2022-07-29T03:12:32.654Z,25.81
2022-07-29T03:15:03.493Z,26.00
2022-07-29T03:17:33.305Z,25.89
2022-07-29T03:20:02.694Z,25.95
2022-07-29T03:22:32.226Z,25.95
2022-07-29T03:25:10.138Z,26.22
2022-07-29T03:27:38.851Z,25.95
2022-07-29T03:30:09.395Z,26.18
2022-07-29T03:32:38.621Z,26.17
2022-07-29T03:35:09.034Z,26.30
2022-07-29T03:37:37.847Z,26.23
2022-07-29T03:40:10.162Z,26.44
2022-07-29T03:42:43.525Z,26.46
2022-07-29T03:45:15.505Z,26.58
2022-07-29T03:47:49.993Z,26.36
2022-07-29T03:50:22.284Z,26.55
2022-07-29T03:52:51.398Z,26.60
2022-07-29T03:55:19.778Z,26.77
2022-07-29T03:57:48.977Z,26.61
2022-07-29T04:00:18.055Z,26.82
2022-07-29T04:02:50.078Z,26.92
2022-07-29T04:05:19.704Z,26.99
2022-07-29T04:07:49.344Z,27.00
2022-07-29T04:10:31.541Z,26.93
2022-07-29T04:13:01.200Z,27.09
2022-07-29T04:15:31.132Z,27.02
2022-07-29T04:18:00.706Z,27.37
2022-07-29T04:20:29.577Z,27.28
2022-07-29T04:22:57.763Z,27.47
2022-07-29T04:25:26.153Z,27.55
2022-07-29T04:28:03.685Z,27.56
2022-07-29T04:30:33.193Z,27.93
2022-07-29T04:33:07.125Z,28.13
2022-07-29T04:35:38.654Z,28.12
2022-07-29T04:38:15.706Z,28.21
2022-07-29T04:40:45.176Z,28.29
2022-07-29T04:43:14.249Z,28.29
2022-07-29T04:45:44.433Z,28.24
2022-07-29T04:48:13.121Z,28.14
2022-07-29T04:50:42.383Z,28.29
2022-07-29T04:53:11.094Z,28.34
2022-07-29T04:55:39.361Z,28.45
2022-07-29T04:58:08.745Z,28.52
2022-07-29T05:00:37.532Z,28.35
2022-07-29T05:03:05.905Z,28.57
2022-07-29T05:05:34.144Z,28.53
2022-07-29T05:08:02.941Z,28.49
2022-07-29T05:10:31.075Z,28.39
2022-07-29T05:12:59.363Z,28.60
2022-07-29T05:15:28.077Z,28.72
2022-07-29T05:17:56.277Z,28.87
2022-07-29T05:20:29.460Z,28.88
2022-07-29T05:22:59.687Z,29.16
2022-07-29T05:25:43.521Z,29.13
2022-07-29T05:28:13.544Z,29.33
2022-07-29T05:30:42.213Z,29.33
2022-07-29T05:33:35.124Z,29.48
2022-07-29T05:36:00.754Z,29.90
2022-07-29T05:38:30.267Z,30.14
2022-07-29T05:41:00.147Z,30.42
2022-07-29T05:43:30.036Z,30.75
2022-07-29T05:45:59.091Z,30.93
2022-07-29T05:48:27.501Z,30.65
2022-07-29T05:50:56.346Z,30.50
2022-07-29T05:53:25.947Z,30.71
2022-07-29T05:55:54.026Z,31.94
2022-07-29T05:58:23.246Z,31.27
2022-07-29T06:00:52.094Z,31.60
2022-07-29T06:03:20.158Z,31.70
2022-07-29T06:05:49.093Z,31.82
2022-07-29T06:08:18.467Z,31.78
2022-07-29T06:10:47.158Z,31.59
2022-07-29T06:13:17.283Z,31.70
2022-07-29T06:15:45.817Z,32.04
2022-07-29T06:18:14.691Z,32.28
2022-07-29T06:20:43.803Z,32.44
2022-07-29T06:23:12.222Z,32.75
2022-07-29T06:25:42.098Z,32.97
2022-07-29T06:28:10.564Z,32.71
2022-07-29T06:30:39.557Z,32.66
2022-07-29T06:33:07.712Z,32.99
2022-07-29T06:35:38.313Z,33.48
2022-07-29T06:38:30.001Z,33.66
2022-07-29T06:41:09.062Z,33.86
2022-07-29T06:43:50.464Z,34.10
2022-07-29T06:46:21.484Z,34.11
2022-07-29T06:48:50.523Z,33.94
2022-07-29T06:51:22.651Z,33.77
2022-07-29T06:54:01.744Z,33.66
2022-07-29T06:56:38.992Z,33.74
2022-07-29T06:59:12.715Z,34.15
2022-07-29T07:01:44.809Z,34.09
2022-07-29T07:04:15.326Z,34.18
2022-07-29T07:06:44.156Z,34.29
2022-07-29T07:09:12.489Z,34.53
2022-07-29T07:11:41.778Z,34.59
2022-07-29T07:14:09.892Z,34.64
2022-07-29T07:16:38.797Z,34.85
2022-07-29T07:19:07.198Z,34.86
2022-07-29T07:21:35.270Z,35.03
2022-07-29T07:24:04.362Z,35.08
2022-07-29T07:26:32.749Z,35.00
2022-07-29T07:29:01.687Z,34.99
2022-07-29T07:31:30.225Z,34.92
2022-07-29T07:33:58.757Z,34.71
2022-07-29T07:36:27.072Z,34.92
2022-07-29T07:38:55.104Z,34.84
2022-07-29T07:41:25.122Z,34.91
2022-07-29T07:43:53.291Z,35.19
2022-07-29T07:46:22.534Z,34.93
2022-07-29T07:48:51.233Z,34.96
2022-07-29T07:51:56.584Z,35.30
2022-07-29T07:58:36.772Z,35.68
2022-07-29T08:01:05.429Z,35.55
2022-07-29T08:03:34.792Z,35.71
2022-07-29T08:06:05.304Z,35.69
2022-07-29T08:08:33.775Z,35.78
2022-07-29T08:11:08.559Z,35.77
2022-07-29T08:13:39.213Z,36.07
2022-07-29T08:16:16.460Z,36.36
2022-07-29T08:18:46.454Z,36.43
2022-07-29T08:21:16.224Z,36.78
2022-07-29T08:23:52.998Z,37.30
2022-07-29T08:26:26.755Z,36.40
2022-07-29T08:28:54.911Z,36.53
2022-07-29T08:31:23.005Z,36.80
2022-07-29T08:33:54.516Z,37.25
2022-07-29T08:36:22.938Z,37.01
2022-07-29T08:38:51.005Z,37.00
2022-07-29T08:41:25.001Z,37.24
2022-07-29T08:43:53.816Z,37.30
2022-07-29T08:46:23.848Z,37.45
2022-07-29T08:48:52.277Z,37.90
2022-07-29T08:51:22.687Z,38.41
2022-07-29T08:53:52.236Z,38.94
2022-07-29T08:56:21.072Z,39.99
2022-07-29T08:58:52.109Z,40.89
2022-07-29T09:01:36.289Z,41.42
2022-07-29T09:04:13.298Z,42.38
2022-07-29T09:06:46.748Z,42.52
2022-07-29T09:09:16.205Z,42.07
2022-07-29T09:11:44.722Z,41.75
2022-07-29T09:14:16.939Z,41.50
2022-07-29T09:16:57.802Z,41.93
2022-07-29T09:19:31.634Z,41.57
2022-07-29T09:22:03.357Z,41.61
2022-07-29T09:24:35.756Z,41.71
2022-07-29T09:27:12.867Z,42.07
2022-07-29T09:29:43.676Z,41.36
2022-07-29T09:32:14.976Z,41.71
2022-07-29T09:34:43.601Z,42.02
2022-07-29T09:37:12.928Z,42.37
2022-07-29T09:39:47.836Z,42.72
2022-07-29T09:42:29.785Z,43.39
2022-07-29T09:44:58.630Z,42.85
2022-07-29T09:47:41.387Z,44.04
2022-07-29T09:50:10.195Z,42.59
2022-07-29T09:52:53.175Z,42.65
2022-07-29T09:55:22.240Z,42.52
2022-07-29T09:57:50.606Z,44.11
2022-07-29T10:00:21.316Z,43.47
2022-07-29T10:02:50.430Z,44.16
2022-07-29T10:05:24.299Z,44.56
2022-07-29T10:07:58.134Z,44.30
2022-07-29T10:10:28.875Z,43.95
2022-07-29T10:13:07.968Z,43.45
2022-07-29T10:15:44.632Z,43.32
2022-07-29T10:18:18.709Z,43.19
2022-07-29T10:20:49.640Z,43.02
2022-07-29T10:23:18.367Z,43.04
2022-07-29T10:25:47.560Z,44.10
2022-07-29T10:28:16.698Z,45.69
2022-07-29T10:30:47.395Z,46.46
2022-07-29T10:33:38.134Z,47.36
2022-07-29T10:36:14.317Z,46.33
2022-07-29T10:39:06.111Z,45.70
2022-07-29T10:41:57.884Z,44.83
2022-07-29T10:44:28.722Z,44.91
2022-07-29T10:46:58.156Z,46.29
2022-07-29T10:49:30.701Z,47.88
2022-07-29T10:52:07.173Z,49.04
2022-07-29T10:54:46.647Z,48.84
2022-07-29T10:57:18.540Z,47.89
2022-07-29T11:00:16.824Z,48.13
2022-07-29T11:02:50.380Z,46.68
2022-07-29T11:05:22.539Z,45.51
2022-07-29T11:08:28.114Z,45.73
2022-07-29T11:11:20.243Z,45.01
2022-07-29T11:13:56.944Z,44.07
2022-07-29T11:16:26.992Z,43.65
2022-07-29T11:19:14.844Z,45.05
2022-07-29T11:21:53.977Z,45.00
2022-07-29T11:24:35.373Z,44.83
2022-07-29T11:30:07.195Z,43.78
2022-07-29T11:32:40.878Z,43.84
2022-07-29T11:35:37.411Z,44.87
2022-07-29T11:38:35.998Z,46.62
2022-07-29T11:41:19.248Z,47.42
2022-07-29T11:43:56.330Z,48.14
2022-07-29T11:46:43.359Z,47.28
2022-07-29T11:49:15.357Z,45.79
2022-07-29T11:51:48.127Z,45.05
2022-07-29T11:54:27.332Z,44.62
2022-07-29T11:56:56.874Z,45.65
2022-07-29T12:07:53.792Z,48.79
2022-07-29T12:10:30.412Z,49.57
2022-07-29T12:12:59.242Z,49.06
2022-07-29T12:15:39.185Z,47.67
2022-07-29T12:18:18.597Z,46.40
2022-07-29T12:20:47.654Z,46.88
2022-07-29T12:23:18.890Z,47.68
2022-07-29T12:25:49.833Z,48.20
2022-07-29T12:28:26.853Z,48.03
2022-07-29T12:30:55.783Z,47.59
2022-07-29T12:33:31.244Z,46.65
2022-07-29T12:36:07.561Z,45.36
2022-07-29T12:38:41.626Z,44.15
2022-07-29T12:41:10.150Z,43.73
2022-07-29T12:43:38.164Z,43.02
2022-07-29T12:46:16.470Z,43.22
2022-07-29T12:48:45.217Z,43.34
2022-07-29T12:51:15.664Z,44.23
2022-07-29T12:54:11.905Z,45.72
2022-07-29T12:56:43.167Z,45.51
2022-07-29T12:59:19.916Z,46.19
2022-07-29T13:01:50.774Z,45.44
2022-07-29T13:04:33.524Z,45.72
2022-07-29T13:07:05.083Z,44.74
2022-07-29T13:09:44.266Z,44.43
2022-07-29T13:12:15.402Z,43.41
2022-07-29T13:14:46.693Z,42.59
2022-07-29T13:17:18.412Z,42.16
2022-07-29T13:19:52.638Z,41.37
2022-07-29T13:22:22.923Z,42.44
2022-07-29T13:24:53.687Z,41.01
2022-07-29T13:27:25.989Z,40.61
2022-07-29T13:29:57.820Z,40.46
2022-07-29T13:32:29.081Z,39.90
2022-07-29T13:34:59.472Z,40.02
2022-07-29T13:37:30.939Z,40.65
2022-07-29T13:40:00.506Z,40.61
2022-07-29T13:42:30.563Z,40.56
2022-07-29T13:45:00.617Z,40.32
2022-07-29T13:47:32.186Z,40.07
2022-07-29T13:50:03.328Z,39.96
2022-07-29T13:52:34.691Z,40.11
2022-07-29T13:55:04.726Z,40.33
2022-07-29T13:57:33.569Z,40.51
2022-07-29T14:00:01.800Z,41.93
2022-07-29T14:02:36.946Z,40.88
2022-07-29T14:05:26.442Z,41.23
2022-07-29T14:07:55.093Z,40.43
2022-07-29T14:10:23.465Z,40.23
2022-07-29T14:12:51.648Z,40.06
2022-07-29T14:15:20.546Z,39.83
2022-07-29T14:17:48.706Z,39.69
2022-07-29T14:20:17.189Z,39.64
2022-07-29T14:22:46.015Z,39.48
2022-07-29T14:25:15.422Z,39.24
2022-07-29T14:27:45.425Z,39.44
2022-07-29T14:30:14.484Z,39.60
2022-07-29T14:32:44.102Z,39.38
2022-07-29T14:35:14.079Z,39.47
2022-07-29T14:37:47.784Z,39.36
2022-07-29T14:40:18.646Z,39.04
2022-07-29T14:42:49.204Z,39.31
2022-07-29T14:45:17.868Z,39.56
2022-07-29T14:47:46.016Z,39.56
2022-07-29T14:50:14.990Z,39.10
2022-07-29T14:53:20.506Z,39.48
2022-07-29T14:55:50.725Z,39.10
2022-07-29T14:58:19.784Z,39.06
2022-07-29T15:00:49.496Z,38.93
2022-07-29T15:03:24.095Z,38.69
2022-07-29T15:05:52.826Z,38.55
2022-07-29T15:08:22.884Z,38.93
2022-07-29T15:10:51.884Z,39.17
2022-07-29T15:13:21.307Z,39.14
2022-07-29T15:15:51.401Z,39.06
2022-07-29T15:18:25.671Z,39.03
2022-07-29T15:20:55.115Z,38.89
2022-07-29T15:23:23.563Z,38.70
2022-07-29T15:25:52.124Z,38.73
2022-07-29T15:28:21.871Z,38.97
2022-07-29T15:30:50.290Z,39.04
2022-07-29T15:33:19.849Z,39.16
2022-07-29T15:35:49.061Z,39.25
2022-07-29T15:38:18.090Z,39.24
2022-07-29T15:40:47.801Z,39.17
2022-07-29T15:43:17.128Z,39.29
2022-07-29T15:46:04.336Z,39.15
2022-07-29T15:48:33.415Z,38.97
2022-07-29T15:51:02.000Z,38.88
2022-07-29T15:53:30.641Z,38.74
2022-07-29T15:56:02.875Z,38.47
2022-07-29T15:58:34.397Z,38.51
2022-07-29T16:01:04.331Z,38.27
2022-07-29T16:03:34.513Z,38.00
2022-07-29T16:06:05.488Z,38.12
2022-07-29T16:08:34.937Z,37.82
2022-07-29T16:11:04.864Z,37.72
2022-07-29T16:13:35.143Z,37.21
2022-07-29T16:16:06.408Z,37.16
2022-07-29T16:18:35.800Z,36.86
2022-07-29T16:21:04.983Z,36.72
2022-07-29T16:23:33.682Z,36.61
2022-07-29T16:26:03.196Z,36.42
2022-07-29T16:28:32.779Z,36.24
2022-07-29T16:31:02.493Z,36.07
2022-07-29T16:33:55.551Z,35.79
2022-07-29T16:36:27.069Z,35.72
2022-07-29T16:38:59.130Z,35.66
2022-07-29T16:41:31.723Z,35.43
2022-07-29T16:44:02.547Z,35.20
2022-07-29T16:46:31.336Z,35.06
2022-07-29T16:49:00.082Z,34.98
2022-07-29T16:51:30.903Z,34.92
2022-07-29T16:53:59.741Z,34.66
2022-07-29T16:56:28.568Z,34.61
2022-07-29T16:58:59.576Z,34.54
2022-07-29T17:01:28.775Z,34.40
2022-07-29T17:04:07.905Z,34.31
2022-07-29T17:06:41.652Z,34.33
2022-07-29T17:09:16.144Z,34.18
2022-07-29T17:11:53.135Z,33.95
2022-07-29T17:14:29.130Z,34.05
2022-07-29T17:17:02.828Z,33.75
2022-07-29T17:19:35.760Z,33.58
2022-07-29T17:22:15.459Z,33.47
2022-07-29T17:24:49.187Z,33.49
2022-07-29T17:27:18.556Z,33.38
2022-07-29T17:29:49.408Z,33.37
2022-07-29T17:32:18.101Z,33.30
2022-07-29T17:34:47.031Z,33.30
2022-07-29T17:37:15.436Z,33.24
2022-07-29T17:39:43.869Z,32.99
2022-07-29T17:42:14.752Z,33.03
2022-07-29T17:44:42.933Z,32.88
2022-07-29T17:47:15.837Z,32.80
2022-07-29T17:49:46.012Z,32.62
2022-07-29T17:52:14.451Z,32.56
2022-07-29T17:54:42.702Z,32.37
2022-07-29T17:57:11.706Z,32.41
2022-07-29T17:59:39.888Z,32.25
2022-07-29T18:02:10.306Z,32.29
2022-07-29T18:04:39.284Z,32.19
2022-07-29T18:07:07.582Z,31.99
2022-07-29T18:09:39.259Z,32.00
2022-07-29T18:12:07.980Z,31.93
2022-07-29T18:14:36.109Z,31.89
2022-07-29T18:17:04.747Z,31.58
2022-07-29T18:19:33.960Z,31.57
2022-07-29T18:22:04.967Z,31.61
2022-07-29T18:24:35.329Z,31.51
2022-07-29T18:27:03.845Z,31.32
2022-07-29T18:29:31.846Z,31.44
2022-07-29T18:32:00.212Z,31.24
2022-07-29T18:34:29.689Z,31.37
2022-07-29T18:36:58.229Z,31.27
2022-07-29T18:39:27.078Z,31.21
2022-07-29T18:41:55.472Z,31.16
2022-07-29T18:44:23.929Z,30.92
2022-07-29T18:46:53.631Z,31.08
2022-07-29T18:49:23.308Z,31.07
2022-07-29T18:51:52.681Z,31.14
2022-07-29T18:54:21.374Z,31.15
2022-07-29T18:56:49.936Z,30.93
2022-07-29T18:59:20.615Z,31.00
2022-07-29T19:01:49.837Z,31.02
2022-07-29T19:04:18.277Z,30.86
2022-07-29T19:06:46.822Z,30.72
2022-07-29T19:09:16.554Z,30.78
2022-07-29T19:11:44.902Z,30.82
2022-07-29T19:14:13.251Z,30.67
2022-07-29T19:16:41.947Z,30.60
2022-07-29T19:19:10.844Z,30.63
2022-07-29T19:21:38.903Z,30.66
2022-07-29T19:24:13.610Z,30.84
2022-07-29T19:26:47.123Z,30.72
2022-07-29T19:29:16.465Z,30.71
2022-07-29T19:31:44.818Z,30.61
2022-07-29T19:34:13.359Z,30.51
2022-07-29T19:36:42.353Z,30.56
2022-07-29T19:39:10.970Z,30.47
2022-07-29T19:41:40.114Z,30.53
2022-07-29T19:44:08.767Z,31.41
2022-07-29T19:46:36.909Z,30.43
2022-07-29T19:49:06.892Z,30.42
2022-07-29T19:51:35.881Z,30.42
2022-07-29T19:54:04.667Z,30.21
2022-07-29T19:56:33.406Z,30.17
2022-07-29T19:59:03.093Z,30.21
2022-07-29T20:01:36.712Z,30.16
2022-07-29T20:04:05.526Z,30.22
2022-07-29T20:06:35.157Z,30.21
2022-07-29T20:09:04.612Z,30.24
2022-07-29T20:11:37.181Z,30.18
2022-07-29T20:14:05.909Z,30.16
2022-07-29T20:16:34.474Z,30.07
2022-07-29T20:19:02.959Z,30.05
2022-07-29T20:21:31.823Z,29.93
2022-07-29T20:24:02.757Z,30.93
2022-07-29T20:26:34.174Z,30.12
2022-07-29T20:29:05.629Z,29.78
2022-07-29T20:31:34.346Z,29.64
2022-07-29T20:34:02.984Z,29.83
2022-07-29T20:36:31.819Z,29.72
2022-07-29T20:39:01.404Z,29.78
2022-07-29T20:41:29.562Z,29.74
2022-07-29T20:43:58.384Z,29.86
2022-07-29T20:46:26.701Z,29.75
2022-07-29T20:48:55.237Z,29.72
2022-07-29T20:51:24.036Z,29.72
2022-07-29T20:53:52.236Z,29.68
2022-07-29T20:56:20.454Z,29.51
2022-07-29T20:58:49.886Z,29.53
2022-07-29T21:01:17.974Z,30.45
2022-07-29T21:03:46.211Z,29.66
2022-07-29T21:06:16.317Z,29.66
2022-07-29T21:08:44.667Z,29.65
2022-07-29T21:11:13.057Z,29.63
2022-07-29T21:13:42.377Z,29.73
2022-07-29T21:16:14.747Z,29.63
2022-07-29T21:18:46.823Z,29.58
2022-07-29T21:21:16.793Z,29.50
2022-07-29T21:23:46.599Z,29.48
2022-07-29T21:26:16.266Z,29.53
2022-07-29T21:28:44.478Z,29.50
2022-07-29T21:31:15.034Z,29.60
2022-07-29T21:33:46.142Z,29.54
2022-07-29T21:36:46.456Z,29.28
2022-07-29T21:39:07.402Z,29.46
2022-07-29T21:41:36.426Z,29.37
2022-07-29T21:44:05.437Z,29.22
2022-07-29T21:46:33.483Z,28.96
2022-07-29T21:49:02.450Z,29.01
2022-07-29T21:51:30.367Z,29.09
2022-07-29T21:53:58.673Z,28.93
2022-07-29T21:56:28.005Z,28.87
2022-07-29T21:58:56.624Z,28.88
2022-07-29T22:01:25.452Z,29.97
2022-07-29T22:03:54.231Z,29.14
2022-07-29T22:06:22.892Z,28.85
2022-07-29T22:08:50.769Z,28.72
2022-07-29T22:11:20.272Z,28.70
2022-07-29T22:13:48.424Z,29.82
2022-07-29T22:16:16.550Z,28.88
2022-07-29T22:18:47.263Z,28.71
2022-07-29T22:21:16.182Z,28.59
2022-07-29T22:23:44.122Z,28.55
2022-07-29T22:26:12.677Z,28.49
2022-07-29T22:28:41.164Z,28.51
2022-07-29T22:31:10.426Z,28.46
2022-07-29T22:33:38.906Z,28.19
2022-07-29T22:36:07.731Z,28.24
2022-07-29T22:38:35.824Z,28.21
2022-07-29T22:41:04.257Z,28.09
2022-07-29T22:43:32.405Z,28.08
2022-07-29T22:46:00.758Z,28.09
2022-07-29T22:48:29.504Z,27.97
2022-07-29T22:50:57.579Z,28.04
2022-07-29T22:53:25.844Z,27.95
2022-07-29T22:55:55.447Z,27.95
2022-07-29T22:58:23.683Z,27.79
2022-07-29T23:00:54.280Z,27.61
2022-07-29T23:03:23.668Z,27.76
2022-07-29T23:05:52.209Z,27.54
2022-07-29T23:08:21.251Z,27.59
2022-07-29T23:10:50.086Z,27.64
2022-07-29T23:13:18.288Z,27.68
2022-07-29T23:15:46.709Z,27.73
2022-07-29T23:18:15.532Z,27.66
2022-07-29T23:20:45.914Z,27.63
2022-07-29T23:23:15.000Z,27.51
2022-07-29T23:25:43.522Z,27.48
2022-07-29T23:28:13.299Z,27.43
2022-07-29T23:30:42.847Z,27.37
2022-07-29T23:33:11.537Z,27.37
2022-07-29T23:35:39.832Z,27.28
2022-07-29T23:38:08.258Z,27.08
2022-07-29T23:40:36.925Z,27.02
2022-07-29T23:43:08.459Z,27.13
2022-07-29T23:45:42.781Z,27.07
2022-07-29T23:48:14.927Z,26.97
2022-07-29T23:50:43.733Z,26.91
2022-07-29T23:53:12.538Z,26.85
2022-07-29T23:55:40.729Z,26.82
2022-07-29T23:58:10.029Z,26.67
